Time;durP1;ratioP1;P1;durP2;ratioP2;P2;SDS_P1;SDS_P2;PMS_P1;PMS_P2;Temp;Humidity;BMP_temperature;BMP_pressure;BME280_temperature;BME280_humidity;BME280_pressure;Samples;Min_cycle;Max_cycle;Signal;HPM_P1;HPM_P2
2022/07/08 04:02:33;;;;;;;3.83;2.83;;;15.20;99.90;;;;;;5027872;23;20893;-61
2022/07/08 04:04:59;;;;;;;4.80;2.47;;;15.20;99.90;;;;;;4995514;28;20453;-60
2022/07/08 04:07:26;;;;;;;5.80;2.67;;;15.20;99.90;;;;;;4995374;28;20460;-60
2022/07/08 04:09:53;;;;;;;6.30;3.03;;;15.30;99.90;;;;;;4995205;28;20454;-60
2022/07/08 04:12:19;;;;;;;5.73;3.13;;;15.30;99.90;;;;;;5000704;28;20479;-61
2022/07/08 04:14:46;;;;;;;6.63;2.80;;;15.30;99.90;;;;;;5000739;28;20446;-61
2022/07/08 04:17:13;;;;;;;6.40;3.13;;;15.30;99.90;;;;;;4995171;28;20461;-60
2022/07/08 04:19:41;;;;;;;8.20;3.47;;;15.30;99.90;;;;;;4995195;28;20543;-61
2022/07/08 04:22:08;;;;;;;6.70;3.33;;;15.30;99.90;;;;;;4995047;28;20480;-61
2022/07/08 04:24:35;;;;;;;8.80;3.20;;;15.30;99.90;;;;;;4995278;28;20465;-61
2022/07/08 04:27:02;;;;;;;6.40;2.90;;;15.30;99.90;;;;;;4994716;28;20940;-61
2022/07/08 04:29:28;;;;;;;3.30;2.70;;;15.40;99.90;;;;;;4995035;28;20465;-61
2022/07/08 04:31:55;;;;;;;3.10;2.80;;;15.40;99.90;;;;;;4995027;28;20477;-62
2022/07/08 04:34:22;;;;;;;5.60;2.70;;;15.40;99.90;;;;;;4995143;28;20512;-61
2022/07/08 04:36:49;;;;;;;6.43;3.07;;;15.30;99.90;;;;;;5002255;28;20453;-62
2022/07/08 04:39:16;;;;;;;4.90;3.07;;;15.40;99.90;;;;;;5002042;28;20929;-62
2022/07/08 04:41:43;;;;;;;7.47;2.67;;;15.30;99.90;;;;;;4994848;28;20517;-62
2022/07/08 04:44:10;;;;;;;4.40;3.77;;;15.40;99.90;;;;;;4995053;28;20967;-62
2022/07/08 04:46:36;;;;;;;5.43;3.10;;;15.40;99.90;;;;;;4995049;28;20453;-62
2022/07/08 04:49:03;;;;;;;9.00;3.60;;;15.40;99.90;;;;;;4994891;28;20454;-62
2022/07/08 04:51:30;;;;;;;5.33;2.97;;;15.50;99.90;;;;;;4994748;28;20473;-61
2022/07/08 04:53:58;;;;;;;4.90;2.90;;;15.50;99.90;;;;;;4994455;28;20945;-61
2022/07/08 04:56:25;;;;;;;4.90;3.00;;;15.50;99.90;;;;;;4994616;28;20457;-61
2022/07/08 04:58:51;;;;;;;9.37;3.37;;;15.60;99.90;;;;;;4994754;28;20460;-61
2022/07/08 05:01:18;;;;;;;8.57;3.27;;;15.60;99.90;;;;;;4994233;28;20853;-60
2022/07/08 05:03:45;;;;;;;7.13;2.90;;;15.60;99.90;;;;;;4994620;28;20490;-61
2022/07/08 05:06:12;;;;;;;6.17;2.73;;;15.70;99.90;;;;;;5000246;28;20480;-62
2022/07/08 05:08:38;;;;;;;4.63;2.80;;;15.70;99.90;;;;;;5000854;28;20457;-61
2022/07/08 05:11:07;;;;;;;6.33;2.73;;;15.70;99.90;;;;;;4996669;28;20473;-61
2022/07/08 05:13:33;;;;;;;5.53;2.90;;;15.70;99.90;;;;;;4995154;28;20460;-61
2022/07/08 05:16:00;;;;;;;7.50;3.37;;;15.70;99.90;;;;;;4994770;28;20933;-61
2022/07/08 05:18:27;;;;;;;8.53;3.60;;;15.70;99.90;;;;;;4995122;28;20461;-62
2022/07/08 05:20:53;;;;;;;3.90;3.00;;;15.70;99.90;;;;;;4994319;28;20482;-62
2022/07/08 05:23:20;;;;;;;8.57;3.37;;;15.90;99.90;;;;;;4994291;28;20980;-62
2022/07/08 05:25:47;;;;;;;7.33;3.23;;;16.10;99.90;;;;;;4994162;28;20944;-61
2022/07/08 05:28:15;;;;;;;5.73;2.97;;;16.30;99.90;;;;;;4995226;28;20461;-62
2022/07/08 05:30:42;;;;;;;5.73;3.23;;;16.60;99.90;;;;;;4994876;28;20484;-63
2022/07/08 05:33:09;;;;;;;6.83;2.60;;;16.70;99.90;;;;;;4994465;28;20504;-63
2022/07/08 05:35:35;;;;;;;8.13;2.73;;;16.70;99.90;;;;;;4994488;28;20462;-62
2022/07/08 05:38:02;;;;;;;6.77;2.77;;;16.80;99.90;;;;;;4994427;28;20457;-62
2022/07/08 05:40:29;;;;;;;9.13;3.27;;;16.70;99.90;;;;;;4996500;28;20532;-63
2022/07/08 05:42:55;;;;;;;5.27;2.87;;;16.70;99.90;;;;;;4998361;28;20460;-62
2022/07/08 05:45:23;;;;;;;7.90;3.27;;;16.70;99.90;;;;;;4998003;28;20845;-63
2022/07/08 05:47:50;;;;;;;3.30;2.93;;;16.80;99.90;;;;;;4998535;28;20529;-62
2022/07/08 05:50:17;;;;;;;8.07;2.80;;;16.90;99.90;;;;;;4998499;28;20454;-62
2022/07/08 05:52:44;;;;;;;6.03;2.70;;;16.90;99.90;;;;;;4998114;28;20457;-62
2022/07/08 05:55:10;;;;;;;5.80;2.83;;;17.00;99.90;;;;;;4997954;28;20465;-62
2022/07/08 05:57:37;;;;;;;5.47;2.87;;;17.00;99.90;;;;;;4998116;28;20458;-63
2022/07/08 06:00:05;;;;;;;6.93;2.73;;;17.00;99.90;;;;;;4997870;28;20477;-62
2022/07/08 06:02:33;;;;;;;6.60;2.80;;;17.00;99.90;;;;;;4997500;28;20485;-62
2022/07/08 06:05:00;;;;;;;4.97;2.53;;;17.00;99.90;;;;;;4997625;28;20465;-62
2022/07/08 06:07:26;;;;;;;6.20;2.53;;;17.00;99.90;;;;;;4998586;28;20454;-62
2022/07/08 06:09:53;;;;;;;5.47;2.40;;;17.10;99.90;;;;;;4998102;28;20466;-63
2022/07/08 06:12:20;;;;;;;3.93;2.13;;;17.20;99.90;;;;;;4997398;28;20478;-63
2022/07/08 06:14:46;;;;;;;5.10;2.50;;;17.30;99.90;;;;;;4997859;28;20457;-63
2022/07/08 06:17:14;;;;;;;4.27;2.73;;;17.30;99.90;;;;;;4997716;28;20460;-62
2022/07/08 06:19:42;;;;;;;4.00;2.43;;;17.40;99.90;;;;;;4998308;28;20457;-62
2022/07/08 06:22:09;;;;;;;4.73;1.90;;;17.60;99.90;;;;;;4997595;28;20476;-62
2022/07/08 06:24:36;;;;;;;5.27;2.60;;;17.70;99.90;;;;;;4997758;28;20453;-62
2022/07/08 06:27:02;;;;;;;3.10;2.00;;;17.80;99.90;;;;;;4997643;28;20461;-63
2022/07/08 06:29:29;;;;;;;6.00;2.63;;;18.00;99.90;;;;;;4997844;28;20434;-62
2022/07/08 06:31:56;;;;;;;7.00;2.67;;;18.10;99.90;;;;;;4999589;28;20527;-62
2022/07/08 06:34:23;;;;;;;6.63;2.00;;;18.20;99.90;;;;;;4998969;28;20450;-62
2022/07/08 06:36:51;;;;;;;2.50;2.07;;;18.50;99.90;;;;;;4998243;28;20456;-62
2022/07/08 06:39:17;;;;;;;9.20;2.17;;;18.70;99.90;;;;;;4998415;28;20454;-62
2022/07/08 06:41:44;;;;;;;3.67;2.10;;;19.00;99.90;;;;;;4998323;28;21168;-61
2022/07/08 06:44:11;;;;;;;3.37;1.70;;;19.10;99.90;;;;;;4999616;28;20488;-62
2022/07/08 06:46:37;;;;;;;3.57;2.20;;;19.40;99.90;;;;;;4997119;28;20508;-62
2022/07/08 06:49:04;;;;;;;6.00;1.70;;;19.70;99.60;;;;;;4998590;28;20528;-65
2022/07/08 06:51:31;;;;;;;8.23;1.70;;;19.80;96.30;;;;;;4996838;28;20505;-68
2022/07/08 06:56:43;;;;;;;4.57;1.60;;;20.00;95.20;;;;;;4998442;28;20425;-66
2022/07/08 06:59:10;;;;;;;3.40;1.90;;;20.10;95.40;;;;;;4998251;28;20960;-64
2022/07/08 07:01:36;;;;;;;4.93;2.37;;;20.50;94.10;;;;;;4996818;28;20904;-65
2022/07/08 07:04:03;;;;;;;6.13;1.80;;;21.00;90.90;;;;;;4997064;28;21011;-65
2022/07/08 07:06:30;;;;;;;3.30;1.87;;;21.50;91.30;;;;;;4997336;28;20861;-66
2022/07/08 07:08:58;;;;;;;3.33;1.80;;;22.00;90.40;;;;;;4996861;28;20955;-65
2022/07/08 07:11:25;;;;;;;3.20;1.63;;;22.50;88.60;;;;;;4997790;28;20470;-65
2022/07/08 07:13:52;;;;;;;2.87;1.50;;;22.90;85.50;;;;;;4997281;28;20453;-65
2022/07/08 07:16:18;;;;;;;2.63;1.40;;;23.30;82.70;;;;;;4997162;28;20473;-66
2022/07/08 07:18:45;;;;;;;3.90;1.60;;;23.50;80.20;;;;;;4997537;28;20454;-65
2022/07/08 07:21:12;;;;;;;2.90;1.70;;;23.30;79.70;;;;;;4997682;28;20488;-66
2022/07/08 07:23:38;;;;;;;4.90;1.80;;;23.40;81.20;;;;;;4997384;28;20457;-65
2022/07/08 07:26:06;;;;;;;8.83;2.67;;;23.60;76.30;;;;;;4997699;28;20454;-66
2022/07/08 07:28:35;;;;;;;6.13;2.57;;;23.30;77.00;;;;;;4997431;28;20980;-66
2022/07/08 07:31:01;;;;;;;2.87;1.53;;;23.20;78.80;;;;;;4996839;28;20528;-64
2022/07/08 07:33:28;;;;;;;4.27;2.27;;;23.10;78.50;;;;;;4996624;28;20949;-66
2022/07/08 07:35:56;;;;;;;3.80;1.67;;;23.00;77.30;;;;;;4997151;28;20944;-66
2022/07/08 07:38:22;;;;;;;5.00;1.70;;;22.90;78.30;;;;;;4996622;28;20456;-66
2022/07/08 07:40:49;;;;;;;3.63;1.87;;;23.00;77.10;;;;;;4997136;28;20488;-66
2022/07/08 07:43:17;;;;;;;4.50;1.80;;;23.20;77.20;;;;;;4996313;28;20460;-66
2022/07/08 07:45:44;;;;;;;4.17;1.43;;;23.50;73.60;;;;;;4996701;28;20865;-67
2022/07/08 07:48:11;;;;;;;2.30;1.70;;;23.70;75.50;;;;;;4999454;28;20521;-67
2022/07/08 07:50:37;;;;;;;2.83;1.40;;;24.10;74.80;;;;;;5007055;28;20493;-67
2022/07/08 07:53:04;;;;;;;3.43;2.23;;;23.90;73.10;;;;;;5001080;28;21007;-66
2022/07/08 07:55:31;;;;;;;3.60;1.60;;;24.00;75.10;;;;;;4997216;28;20457;-66
2022/07/08 07:57:58;;;;;;;3.53;1.10;;;24.20;73.80;;;;;;4996974;28;20940;-66
2022/07/08 08:00:26;;;;;;;2.10;1.20;;;24.90;73.20;;;;;;4996793;28;20553;-65
2022/07/08 08:02:53;;;;;;;5.30;1.93;;;25.30;68.80;;;;;;4997630;28;20479;-66
2022/07/08 08:05:20;;;;;;;3.30;1.40;;;25.40;68.10;;;;;;4995280;28;20953;-65
2022/07/08 08:07:47;;;;;;;4.07;1.43;;;25.30;68.20;;;;;;4996888;28;20457;-66
2022/07/08 08:10:14;;;;;;;2.27;1.40;;;24.50;66.50;;;;;;4996831;28;20454;-64
2022/07/08 08:12:41;;;;;;;3.93;2.00;;;23.60;69.30;;;;;;4998271;28;20457;-65
2022/07/08 08:15:09;;;;;;;2.30;1.97;;;23.10;71.50;;;;;;4998913;28;20461;-65
2022/07/08 08:17:38;;;;;;;4.07;1.50;;;23.10;73.30;;;;;;5001195;28;20512;-66
2022/07/08 08:20:07;;;;;;;3.63;1.67;;;22.80;72.10;;;;;;4999662;28;20456;-65
2022/07/08 08:22:34;;;;;;;4.10;1.67;;;22.80;73.10;;;;;;5000435;28;20532;-65
2022/07/08 08:25:01;;;;;;;5.47;1.50;;;22.50;73.60;;;;;;4996880;28;20454;-65
2022/07/08 08:27:28;;;;;;;4.10;1.57;;;22.70;76.60;;;;;;4996487;28;20450;-65
2022/07/08 08:29:54;;;;;;;1.67;1.43;;;23.30;76.80;;;;;;4996126;28;20450;-65
2022/07/08 08:32:21;;;;;;;2.77;1.40;;;23.60;71.00;;;;;;4995550;28;20809;-65
2022/07/08 08:34:49;;;;;;;4.10;1.50;;;23.70;71.30;;;;;;4996585;28;20458;-64
2022/07/08 08:37:16;;;;;;;7.70;2.50;;;23.70;70.60;;;;;;4998279;28;20461;-65
2022/07/08 08:39:43;;;;;;;5.10;2.20;;;23.60;73.20;;;;;;4999004;28;20976;-65
2022/07/08 08:42:10;;;;;;;4.73;1.80;;;23.20;72.70;;;;;;4997385;28;20488;-64
2022/07/08 08:44:37;;;;;;;4.33;2.23;;;22.90;73.10;;;;;;4997355;28;20937;-66
2022/07/08 08:47:08;;;;;;;3.87;1.80;;;22.70;75.20;;;;;;4999229;28;20451;-65
2022/07/08 08:49:36;;;;;;;3.43;1.40;;;22.30;74.60;;;;;;4999375;28;20442;-65
2022/07/08 08:52:05;;;;;;;3.33;1.50;;;22.20;75.40;;;;;;4998976;28;20476;-65
2022/07/08 08:54:34;;;;;;;3.87;1.70;;;22.40;79.00;;;;;;4996274;28;20481;-65
2022/07/08 08:57:02;;;;;;;3.27;1.40;;;23.10;79.40;;;;;;4998985;28;20453;-65
2022/07/08 08:59:29;;;;;;;4.13;1.27;;;24.20;75.50;;;;;;4997322;28;20468;-65
2022/07/08 09:01:57;;;;;;;2.30;1.20;;;25.20;69.70;;;;;;4996035;28;20482;-65
2022/07/08 09:04:25;;;;;;;6.30;1.80;;;25.90;67.00;;;;;;4998027;28;20489;-65
2022/07/08 09:06:51;;;;;;;5.20;1.47;;;25.60;66.50;;;;;;4998249;28;20453;-65
2022/07/08 09:09:19;;;;;;;3.10;2.30;;;25.50;67.00;;;;;;4997118;28;20968;-65
2022/07/08 09:11:46;;;;;;;3.63;1.83;;;25.10;66.70;;;;;;4995886;28;20501;-65
2022/07/08 09:14:17;;;;;;;2.00;1.30;;;24.60;67.80;;;;;;4994612;28;20516;-65
2022/07/08 09:17:07;;;;;;;2.80;1.47;;;24.60;70.30;;;;;;4995068;28;20461;-65
2022/07/08 09:19:36;;;;;;;2.37;1.40;;;25.10;70.10;;;;;;4995164;28;20474;-65
2022/07/08 09:22:02;;;;;;;4.47;1.33;;;25.80;68.80;;;;;;4995147;28;20568;-65
2022/07/08 09:24:29;;;;;;;3.30;1.50;;;26.40;64.50;;;;;;4995255;28;20978;-65
2022/07/08 09:26:56;;;;;;;4.50;1.90;;;26.70;62.40;;;;;;4994964;28;20461;-65
2022/07/08 09:29:22;;;;;;;2.70;1.27;;;26.70;61.30;;;;;;4995213;28;20457;-65
2022/07/08 09:31:50;;;;;;;2.77;1.60;;;26.40;64.50;;;;;;4995204;28;20546;-65
2022/07/08 09:34:21;;;;;;;2.37;1.50;;;25.90;65.00;;;;;;4994280;28;20450;-65
2022/07/08 09:36:50;;;;;;;2.50;1.40;;;25.30;64.90;;;;;;4994466;28;20449;-65
2022/07/08 09:39:24;;;;;;;1.53;1.13;;;24.70;65.50;;;;;;4994340;28;20469;-65
2022/07/08 09:41:51;;;;;;;1.47;1.37;;;24.10;65.00;;;;;;4994163;28;20489;-65
2022/07/08 09:44:19;;;;;;;3.87;1.70;;;24.30;65.70;;;;;;4994283;28;20446;-65
2022/07/08 09:46:46;;;;;;;2.73;1.20;;;25.00;64.50;;;;;;4994033;28;20457;-65
2022/07/08 09:49:27;;;;;;;3.00;1.40;;;25.60;64.30;;;;;;4994315;28;20520;-65
2022/07/08 09:51:56;;;;;;;2.23;1.30;;;26.70;66.00;;;;;;4994212;28;20523;-65
2022/07/08 09:54:23;;;;;;;1.93;1.27;;;27.50;59.90;;;;;;4994099;28;20490;-66
2022/07/08 09:56:58;;;;;;;3.23;1.67;;;27.70;59.60;;;;;;4994110;28;20465;-65
2022/07/08 09:59:25;;;;;;;2.47;1.30;;;28.00;59.70;;;;;;4994038;28;20438;-65
2022/07/08 10:01:52;;;;;;;1.77;1.40;;;28.50;58.70;;;;;;4993424;28;20898;-65
2022/07/08 10:04:22;;;;;;;1.90;1.23;;;29.10;57.00;;;;;;4994090;28;20532;-65
2022/07/08 10:06:49;;;;;;;3.07;1.60;;;29.80;56.10;;;;;;4994552;28;20457;-65
2022/07/08 10:09:18;;;;;;;5.83;1.80;;;30.60;54.60;;;;;;4993911;28;20489;-65
2022/07/08 10:11:45;;;;;;;2.10;1.13;;;31.20;52.40;;;;;;4994023;28;20470;-65
2022/07/08 10:14:11;;;;;;;6.33;1.43;;;31.20;53.00;;;;;;4994048;28;20477;-65
2022/07/08 10:16:40;;;;;;;1.40;1.20;;;30.60;50.50;;;;;;4994205;28;20453;-67
2022/07/08 10:19:10;;;;;;;4.37;1.20;;;29.90;50.90;;;;;;4994212;28;20453;-66
2022/07/08 10:21:40;;;;;;;2.97;1.43;;;29.90;52.00;;;;;;4994113;28;20493;-66
2022/07/08 10:24:10;;;;;;;2.80;1.30;;;29.60;51.00;;;;;;4994231;28;20457;-66
2022/07/08 10:26:40;;;;;;;2.83;1.63;;;29.60;53.80;;;;;;4996465;28;20460;-67
2022/07/08 10:29:08;;;;;;;3.30;1.10;;;30.10;51.90;;;;;;4997497;28;20481;-67
2022/07/08 10:31:43;;;;;;;2.33;1.80;;;29.90;51.10;;;;;;4997271;28;21035;-66
2022/07/08 10:34:11;;;;;;;2.83;1.30;;;30.10;52.60;;;;;;4997720;28;20445;-67
2022/07/08 10:36:47;;;;;;;1.30;1.13;;;30.30;51.40;;;;;;4997661;28;20453;-67
2022/07/08 10:39:15;;;;;;;2.40;1.63;;;30.20;50.80;;;;;;4997515;28;20864;-66
2022/07/08 10:41:56;;;;;;;1.83;0.97;;;29.90;50.90;;;;;;4997087;28;20980;-66
2022/07/08 10:44:52;;;;;;;2.20;1.40;;;29.80;50.40;;;;;;4997614;28;20473;-66
2022/07/08 10:47:25;;;;;;;3.63;1.30;;;29.50;53.20;;;;;;4997561;28;20535;-67
2022/07/08 10:49:51;;;;;;;2.27;1.20;;;29.90;53.70;;;;;;4997456;28;20430;-66
2022/07/08 10:52:20;;;;;;;2.30;1.43;;;29.90;52.80;;;;;;4997450;28;20470;-66
2022/07/08 10:54:48;;;;;;;4.83;1.70;;;30.10;51.50;;;;;;4997313;28;20457;-66
2022/07/08 10:57:27;;;;;;;3.77;1.40;;;29.60;51.70;;;;;;4997080;28;20458;-67
2022/07/08 11:00:14;;;;;;;2.60;1.40;;;28.90;51.40;;;;;;5013378;28;20494;-67
2022/07/08 11:02:43;;;;;;;4.93;1.40;;;28.70;54.30;;;;;;5006745;28;20517;-66
2022/07/08 11:05:34;;;;;;;1.80;1.03;;;28.70;52.70;;;;;;4997190;28;20454;-65
2022/07/08 11:08:25;;;;;;;2.07;1.10;;;28.40;54.30;;;;;;4996911;28;20434;-66
2022/07/08 11:10:53;;;;;;;3.40;1.43;;;28.30;52.70;;;;;;4996740;28;20512;-66
2022/07/08 11:13:21;;;;;;;1.40;1.27;;;28.40;54.60;;;;;;4996384;28;20453;-66
2022/07/08 11:15:49;;;;;;;4.93;1.80;;;28.60;53.20;;;;;;4996513;28;20485;-66
2022/07/08 11:18:22;;;;;;;1.50;1.20;;;28.80;53.70;;;;;;4996859;28;20481;-67
2022/07/08 11:20:49;;;;;;;2.77;1.60;;;29.40;54.90;;;;;;4997673;28;20505;-66
2022/07/08 11:23:19;;;;;;;2.90;1.23;;;29.80;52.30;;;;;;4996669;28;20477;-66
2022/07/08 11:25:47;;;;;;;1.53;1.17;;;29.90;53.30;;;;;;4996545;28;20496;-67
2022/07/08 11:28:22;;;;;;;4.03;1.60;;;30.00;52.10;;;;;;4996599;28;20512;-67
2022/07/08 11:30:48;;;;;;;2.20;1.30;;;29.30;52.70;;;;;;4996491;28;20473;-66
2022/07/08 11:33:15;;;;;;;4.07;1.57;;;29.00;51.60;;;;;;4996449;28;20457;-66
2022/07/08 11:35:42;;;;;;;3.10;2.00;;;28.20;53.10;;;;;;4996170;28;21011;-67
2022/07/08 11:38:09;;;;;;;2.93;1.77;;;27.50;52.70;;;;;;4995666;28;20500;-65
2022/07/08 11:40:41;;;;;;;2.30;2.10;;;27.30;53.40;;;;;;4996283;28;20485;-66
2022/07/08 11:43:14;;;;;;;5.77;2.80;;;26.90;56.10;;;;;;4996224;28;20556;-66
2022/07/08 11:45:42;;;;;;;3.17;1.97;;;26.30;56.10;;;;;;4996209;28;20446;-66
2022/07/08 11:48:08;;;;;;;3.57;1.73;;;26.20;57.30;;;;;;4995995;28;20445;-66
2022/07/08 11:50:38;;;;;;;2.90;1.37;;;26.00;57.00;;;;;;4995703;28;20847;-66
2022/07/08 11:53:05;;;;;;;3.53;1.43;;;25.80;58.40;;;;;;4996169;28;20858;-66
2022/07/08 11:55:32;;;;;;;2.53;1.40;;;25.70;57.80;;;;;;4996247;28;20449;-66
2022/07/08 11:58:01;;;;;;;2.63;1.20;;;25.50;62.30;;;;;;4996181;28;20460;-66
2022/07/08 12:00:28;;;;;;;3.33;1.33;;;25.80;59.50;;;;;;4995580;28;20454;-66
2022/07/08 12:02:56;;;;;;;2.60;1.50;;;26.10;58.20;;;;;;4995943;28;20466;-67
2022/07/08 12:05:23;;;;;;;3.27;1.30;;;26.30;58.90;;;;;;4995942;28;20509;-66
2022/07/08 12:07:51;;;;;;;1.80;1.17;;;26.10;58.90;;;;;;4995848;28;20453;-67
2022/07/08 12:10:22;;;;;;;2.63;1.17;;;26.20;59.10;;;;;;4995756;28;20533;-66
2022/07/08 12:12:57;;;;;;;4.57;1.60;;;26.30;60.10;;;;;;4995676;28;20469;-67
2022/07/08 12:15:24;;;;;;;2.47;1.20;;;26.40;59.50;;;;;;4995688;28;20854;-65
2022/07/08 12:17:58;;;;;;;8.50;1.53;;;26.40;57.90;;;;;;4995575;28;20461;-66
2022/07/08 12:20:32;;;;;;;5.07;1.67;;;26.20;58.50;;;;;;4995542;28;20847;-66
2022/07/08 12:22:59;;;;;;;5.40;2.20;;;26.20;57.80;;;;;;4995469;28;20472;-66
2022/07/08 12:25:25;;;;;;;1.87;1.00;;;25.90;57.90;;;;;;4996078;28;20461;-66
2022/07/08 12:27:57;;;;;;;3.00;1.30;;;25.70;58.50;;;;;;4995140;28;20464;-66
2022/07/08 12:30:26;;;;;;;6.77;2.00;;;25.70;59.90;;;;;;4995204;28;20488;-65
2022/07/08 12:32:53;;;;;;;8.93;3.50;;;25.80;59.90;;;;;;4995729;28;20588;-66
2022/07/08 12:35:29;;;;;;;4.37;1.77;;;25.60;58.60;;;;;;4994881;28;21010;-65
2022/07/08 12:38:04;;;;;;;5.37;1.60;;;25.70;59.40;;;;;;4994968;28;20476;-65
2022/07/08 12:40:38;;;;;;;2.83;1.50;;;25.50;59.40;;;;;;4994855;28;20500;-66
2022/07/08 12:43:05;;;;;;;1.73;1.17;;;25.70;60.00;;;;;;4994784;28;20533;-66
2022/07/08 12:45:33;;;;;;;2.80;1.50;;;26.00;59.80;;;;;;4994353;28;20460;-65
2022/07/08 12:48:00;;;;;;;2.13;1.30;;;26.10;58.70;;;;;;4994424;28;20457;-65
2022/07/08 12:50:31;;;;;;;2.90;1.23;;;25.90;58.00;;;;;;4994863;28;20465;-65
2022/07/08 12:52:58;;;;;;;2.20;1.60;;;25.80;59.10;;;;;;4995471;28;20480;-65
2022/07/08 12:55:25;;;;;;;4.23;1.30;;;25.90;58.60;;;;;;4994486;28;20461;-65
2022/07/08 12:57:51;;;;;;;4.13;2.17;;;25.70;58.60;;;;;;4994544;28;20458;-65
2022/07/08 13:00:18;;;;;;;2.83;1.43;;;25.70;58.10;;;;;;4994164;28;20457;-65
2022/07/08 13:02:45;;;;;;;2.67;1.47;;;25.60;58.40;;;;;;4994222;28;21055;-66
2022/07/08 13:05:13;;;;;;;2.10;1.37;;;25.70;59.60;;;;;;4994598;28;20454;-65
2022/07/08 13:07:41;;;;;;;2.50;1.40;;;25.80;59.50;;;;;;4994504;28;20823;-65
2022/07/08 13:10:09;;;;;;;2.63;1.30;;;25.90;57.80;;;;;;4994330;28;20453;-65
2022/07/08 13:12:36;;;;;;;1.47;1.23;;;26.10;59.70;;;;;;4994437;28;20506;-65
2022/07/08 13:15:03;;;;;;;1.97;1.40;;;26.20;60.80;;;;;;4994472;28;20457;-65
2022/07/08 13:17:30;;;;;;;4.33;1.17;;;26.20;58.40;;;;;;4994437;28;20457;-65
2022/07/08 13:19:57;;;;;;;2.97;1.30;;;26.40;57.40;;;;;;4994528;28;20454;-65
2022/07/08 13:22:23;;;;;;;2.90;1.67;;;26.30;57.40;;;;;;4994288;28;20528;-65
2022/07/08 13:24:51;;;;;;;4.30;2.20;;;26.00;58.60;;;;;;4994583;28;20462;-65
2022/07/08 13:27:18;;;;;;;3.90;1.33;;;26.10;58.60;;;;;;4994134;28;20464;-65
2022/07/08 13:29:45;;;;;;;3.17;1.27;;;26.10;59.70;;;;;;4994266;28;20458;-65
2022/07/08 13:32:11;;;;;;;2.93;1.33;;;26.10;59.90;;;;;;4994008;28;20550;-65
2022/07/08 13:34:38;;;;;;;3.03;1.67;;;26.30;57.90;;;;;;4994320;28;20454;-65
2022/07/08 13:37:05;;;;;;;4.80;1.60;;;26.30;58.80;;;;;;4994309;28;20454;-65
2022/07/08 13:39:31;;;;;;;7.90;2.03;;;26.40;59.00;;;;;;4994300;28;20454;-64
2022/07/08 13:42:00;;;;;;;2.83;1.50;;;26.50;58.90;;;;;;4994384;28;20474;-65
2022/07/08 13:44:26;;;;;;;2.67;1.40;;;26.30;56.70;;;;;;4994059;28;20550;-65
2022/07/08 13:46:54;;;;;;;2.20;1.60;;;26.40;58.70;;;;;;4994015;28;20454;-64
2022/07/08 13:49:21;;;;;;;2.60;1.50;;;26.40;58.20;;;;;;4994227;28;20455;-65
2022/07/08 13:51:47;;;;;;;2.90;1.47;;;26.60;57.30;;;;;;4994078;28;20476;-64
2022/07/08 13:54:14;;;;;;;4.10;1.70;;;26.70;57.70;;;;;;4994123;28;20449;-65
2022/07/08 13:56:41;;;;;;;4.88;1.50;;;26.80;56.90;;;;;;4994615;28;20479;-65
2022/07/08 13:59:10;;;;;;;2.50;1.47;;;26.90;57.70;;;;;;4994158;28;20202;-65
2022/07/08 14:01:37;;;;;;;2.87;1.47;;;26.80;57.30;;;;;;4996321;28;20485;-65
2022/07/08 14:04:03;;;;;;;1.57;1.20;;;26.90;60.60;;;;;;4997779;28;20504;-65
2022/07/08 14:06:30;;;;;;;4.97;1.57;;;26.80;55.40;;;;;;4997937;28;20460;-66
2022/07/08 14:08:57;;;;;;;4.23;1.50;;;26.50;55.70;;;;;;4997503;28;20460;-66
2022/07/08 14:11:23;;;;;;;3.83;1.57;;;26.50;60.00;;;;;;4997750;28;20831;-66
2022/07/08 14:13:50;;;;;;;4.83;1.63;;;26.40;58.70;;;;;;4997476;28;20457;-66
2022/07/08 14:16:18;;;;;;;3.17;1.20;;;26.40;59.40;;;;;;4997765;28;20857;-66
2022/07/08 14:18:45;;;;;;;3.40;1.20;;;26.40;58.10;;;;;;5012609;28;20461;-66
2022/07/08 14:21:11;;;;;;;5.50;1.53;;;26.30;59.20;;;;;;5014502;28;20477;-65
2022/07/08 14:23:38;;;;;;;3.30;1.70;;;26.30;59.50;;;;;;5002560;28;20862;-65
2022/07/08 14:26:05;;;;;;;4.90;1.80;;;26.10;58.10;;;;;;4997672;28;20460;-66
2022/07/08 14:28:32;;;;;;;1.67;1.10;;;25.70;58.40;;;;;;4997429;28;20464;-66
2022/07/08 14:30:58;;;;;;;3.30;1.60;;;25.70;59.40;;;;;;4997352;28;20547;-65
2022/07/08 14:33:26;;;;;;;2.17;1.73;;;25.90;58.80;;;;;;4997189;28;20460;-64
2022/07/08 14:35:53;;;;;;;5.40;1.33;;;25.80;58.20;;;;;;4996860;28;20821;-66
2022/07/08 14:38:20;;;;;;;4.13;1.67;;;26.00;59.60;;;;;;4997128;28;20458;-65
2022/07/08 14:40:46;;;;;;;3.87;1.10;;;26.10;58.40;;;;;;4997063;28;20477;-65
2022/07/08 14:43:14;;;;;;;2.67;1.50;;;26.00;58.00;;;;;;4996797;28;21002;-65
2022/07/08 14:45:42;;;;;;;4.53;1.33;;;26.00;58.70;;;;;;4996872;28;21000;-65
2022/07/08 14:48:08;;;;;;;2.90;1.70;;;26.00;58.60;;;;;;4997206;28;20477;-65
2022/07/08 14:50:36;;;;;;;3.70;1.40;;;26.10;58.30;;;;;;4996974;28;20484;-65
2022/07/08 14:53:03;;;;;;;6.20;1.53;;;26.00;57.60;;;;;;4996925;28;20450;-65
2022/07/08 14:55:30;;;;;;;2.70;1.40;;;25.60;58.30;;;;;;4997055;28;20457;-65
2022/07/08 14:57:58;;;;;;;3.25;1.20;;;25.50;59.00;;;;;;4995693;28;20460;-65
2022/07/08 15:00:25;;;;;;;2.63;1.77;;;25.50;59.10;;;;;;4996445;28;20205;-65
2022/07/08 15:02:52;;;;;;;1.80;1.40;;;25.60;57.40;;;;;;4997046;28;20466;-65
2022/07/08 15:05:18;;;;;;;3.83;1.47;;;25.50;58.00;;;;;;4996966;28;20457;-66
2022/07/08 15:07:46;;;;;;;2.60;1.37;;;25.50;57.30;;;;;;4997049;28;20462;-65
2022/07/08 15:10:13;;;;;;;2.70;1.30;;;25.60;58.50;;;;;;4996967;28;20453;-66
2022/07/08 15:12:40;;;;;;;7.40;1.50;;;25.80;58.10;;;;;;4996844;28;20878;-65
2022/07/08 15:15:07;;;;;;;2.13;1.33;;;25.90;57.90;;;;;;5014996;28;20502;-65
2022/07/08 15:17:34;;;;;;;2.93;1.37;;;26.00;57.60;;;;;;5009311;28;20454;-65
2022/07/08 15:20:01;;;;;;;3.23;1.53;;;26.10;57.90;;;;;;4997392;28;20815;-65
2022/07/08 15:22:28;;;;;;;6.20;1.73;;;26.20;57.70;;;;;;4996673;28;20855;-66
2022/07/08 15:24:56;;;;;;;4.13;1.40;;;26.20;57.50;;;;;;4996452;28;20481;-66
2022/07/08 15:27:22;;;;;;;6.53;1.93;;;26.10;57.50;;;;;;4995914;28;20476;-66
2022/07/08 15:29:49;;;;;;;4.20;1.40;;;26.10;58.10;;;;;;4996290;28;20454;-66
2022/07/08 15:32:16;;;;;;;5.30;1.40;;;26.10;58.10;;;;;;4996950;28;20481;-67
2022/07/08 15:34:43;;;;;;;2.67;1.30;;;26.10;58.40;;;;;;4996273;28;20454;-68
2022/07/08 15:37:10;;;;;;;4.80;1.57;;;26.20;57.20;;;;;;4996149;28;20485;-66
2022/07/08 15:39:37;;;;;;;2.73;1.10;;;26.00;57.00;;;;;;4996060;28;20459;-66
2022/07/08 15:42:08;;;;;;;3.47;1.50;;;25.90;55.40;;;;;;4995590;28;20470;-67
2022/07/08 15:44:34;;;;;;;2.93;1.27;;;25.90;57.90;;;;;;4996016;28;20557;-66
2022/07/08 15:47:02;;;;;;;2.20;1.03;;;25.90;58.50;;;;;;4995805;28;20864;-66
2022/07/08 15:49:30;;;;;;;1.83;1.73;;;26.10;58.20;;;;;;4995761;28;20540;-67
2022/07/08 15:51:57;;;;;;;2.90;1.23;;;26.20;58.00;;;;;;4995773;28;20484;-67
2022/07/08 15:54:24;;;;;;;2.87;1.40;;;26.20;56.80;;;;;;4995844;28;20450;-67
2022/07/08 15:56:51;;;;;;;1.27;1.17;;;26.20;56.70;;;;;;4995909;28;20454;-66
2022/07/08 15:59:19;;;;;;;3.67;2.03;;;26.20;57.10;;;;;;4995834;28;20512;-66
2022/07/08 16:01:46;;;;;;;3.80;1.90;;;26.20;57.60;;;;;;4995172;28;20489;-66
2022/07/08 16:04:13;;;;;;;2.80;1.47;;;26.20;56.20;;;;;;4995533;28;20481;-65
2022/07/08 16:06:39;;;;;;;3.20;1.60;;;26.10;56.30;;;;;;4995432;28;20446;-66
2022/07/08 16:09:06;;;;;;;2.43;1.20;;;25.90;56.00;;;;;;4995593;28;20458;-66
2022/07/08 16:11:33;;;;;;;2.23;1.17;;;25.90;55.60;;;;;;4995422;28;20477;-65
2022/07/08 16:14:00;;;;;;;4.47;1.33;;;25.90;55.70;;;;;;4995662;28;20460;-67
2022/07/08 16:16:28;;;;;;;3.93;1.20;;;25.80;58.30;;;;;;4995322;28;20460;-68
2022/07/08 16:18:55;;;;;;;2.83;1.20;;;25.90;56.80;;;;;;4995224;28;20944;-66
2022/07/08 16:21:21;;;;;;;3.73;1.30;;;26.00;55.90;;;;;;4995005;28;20496;-67
2022/07/08 16:23:48;;;;;;;6.33;1.73;;;25.90;56.30;;;;;;4995054;28;20477;-67
2022/07/08 16:26:15;;;;;;;4.57;1.80;;;25.90;58.10;;;;;;4995417;28;20462;-67
2022/07/08 16:28:42;;;;;;;9.97;2.20;;;25.90;58.60;;;;;;4995658;28;20453;-68
2022/07/08 16:31:09;;;;;;;1.73;1.17;;;25.90;57.60;;;;;;4995346;28;20483;-67
2022/07/08 16:33:37;;;;;;;2.60;1.00;;;26.10;56.10;;;;;;4994663;28;20819;-67
2022/07/08 16:36:07;;;;;;;2.87;1.33;;;26.10;56.70;;;;;;4995124;28;20462;-67
2022/07/08 16:38:35;;;;;;;2.50;1.60;;;26.00;56.80;;;;;;4994938;28;20461;-67
2022/07/08 16:41:01;;;;;;;2.60;1.80;;;26.00;55.60;;;;;;4994592;28;20536;-67
2022/07/08 16:43:28;;;;;;;4.50;1.70;;;25.80;56.80;;;;;;4994871;28;20477;-67
2022/07/08 16:45:55;;;;;;;3.33;1.70;;;25.70;56.60;;;;;;4994805;28;20461;-67
2022/07/08 16:48:21;;;;;;;3.10;1.30;;;25.60;57.20;;;;;;4994828;28;20481;-66
2022/07/08 16:50:49;;;;;;;3.83;1.87;;;25.60;57.70;;;;;;4994702;28;20473;-66
2022/07/08 16:53:16;;;;;;;2.43;1.60;;;25.60;58.20;;;;;;4994862;28;20454;-67
2022/07/08 16:55:43;;;;;;;4.77;1.40;;;25.60;57.00;;;;;;4995616;28;20808;-67